< < Back
Terminal Aerodrome Forecast


Current Version              Previous Versions:   1  2  3  4  5  6  7  8  9  

Terminal Aerodrome Forecast

936
FTUS44 KMRX 061720
TAFCHA
TAF
KCHA 061720Z 0618/0718 26007KT P6SM SCT045 BKN250
     FM070100 00000KT P6SM SCT050
     FM070900 00000KT 3SM BR FEW030
     FM071300 19004KT P6SM FEW030 SCT080=

Latest METAR

693
SAUS80 KWBC 061700 RRB
MTRCHA
METAR KCHA 061653Z 26003KT 10SM SCT028 BKN250 28/20 A3016 RMK AO2 SLP205
T02830200


USA.gov is the U.S. government's official web portal to all federal, state and local government web resources and services.